sensor_id;sensor_type;location;lat;lon;timestamp;temperature;humidity
2935;DHT22;2462;51.456;7.248;2022-07-15T00:00:17;19.40;99.90
2935;DHT22;2462;51.456;7.248;2022-07-15T00:02:43;19.40;99.90
2935;DHT22;2462;51.456;7.248;2022-07-15T00:05:09;19.30;99.90
2935;DHT22;2462;51.456;7.248;2022-07-15T00:07:36;19.30;99.90
2935;DHT22;2462;51.456;7.248;2022-07-15T00:10:02;19.30;99.90
2935;DHT22;2462;51.456;7.248;2022-07-15T00:12:44;19.30;99.90
2935;DHT22;2462;51.456;7.248;2022-07-15T00:15:10;19.30;99.90
2935;DHT22;2462;51.456;7.248;2022-07-15T00:17:36;19.30;99.90
2935;DHT22;2462;51.456;7.248;2022-07-15T00:20:02;19.30;99.90
2935;DHT22;2462;51.456;7.248;2022-07-15T00:22:28;19.20;99.90
2935;DHT22;2462;51.456;7.248;2022-07-15T00:24:54;19.20;99.90
2935;DHT22;2462;51.456;7.248;2022-07-15T00:27:20;19.20;99.90
2935;DHT22;2462;51.456;7.248;2022-07-15T00:29:45;19.20;99.90
2935;DHT22;2462;51.456;7.248;2022-07-15T00:32:11;19.20;99.90
2935;DHT22;2462;51.456;7.248;2022-07-15T00:34:37;19.10;99.90
2935;DHT22;2462;51.456;7.248;2022-07-15T00:37:03;19.20;99.90
2935;DHT22;2462;51.456;7.248;2022-07-15T00:39:29;19.10;99.90
2935;DHT22;2462;51.456;7.248;2022-07-15T00:41:54;19.10;99.90
2935;DHT22;2462;51.456;7.248;2022-07-15T00:44:20;19.10;99.90
2935;DHT22;2462;51.456;7.248;2022-07-15T00:46:45;19.10;99.90
2935;DHT22;2462;51.456;7.248;2022-07-15T00:49:11;19.10;99.90
2935;DHT22;2462;51.456;7.248;2022-07-15T00:51:43;19.10;99.90
2935;DHT22;2462;51.456;7.248;2022-07-15T00:54:11;19.00;99.90
2935;DHT22;2462;51.456;7.248;2022-07-15T00:56:41;19.00;99.90
2935;DHT22;2462;51.456;7.248;2022-07-15T00:59:10;19.00;99.90
2935;DHT22;2462;51.456;7.248;2022-07-15T01:01:36;19.00;99.90
2935;DHT22;2462;51.456;7.248;2022-07-15T01:04:05;19.00;99.90
2935;DHT22;2462;51.456;7.248;2022-07-15T01:06:32;19.00;99.90
2935;DHT22;2462;51.456;7.248;2022-07-15T01:08:58;18.90;99.90
2935;DHT22;2462;51.456;7.248;2022-07-15T01:11:24;18.90;99.90
2935;DHT22;2462;51.456;7.248;2022-07-15T01:13:50;18.90;99.90
2935;DHT22;2462;51.456;7.248;2022-07-15T01:16:16;18.90;99.90
2935;DHT22;2462;51.456;7.248;2022-07-15T01:18:41;18.90;99.90
2935;DHT22;2462;51.456;7.248;2022-07-15T01:21:07;18.90;99.90
2935;DHT22;2462;51.456;7.248;2022-07-15T01:23:33;18.90;99.90
2935;DHT22;2462;51.456;7.248;2022-07-15T01:25:58;18.80;99.90
2935;DHT22;2462;51.456;7.248;2022-07-15T01:28:24;18.80;99.90
2935;DHT22;2462;51.456;7.248;2022-07-15T01:30:49;18.80;99.90
2935;DHT22;2462;51.456;7.248;2022-07-15T01:33:15;18.80;99.90
2935;DHT22;2462;51.456;7.248;2022-07-15T01:35:41;18.80;99.90
2935;DHT22;2462;51.456;7.248;2022-07-15T01:38:08;18.70;99.90
2935;DHT22;2462;51.456;7.248;2022-07-15T01:40:33;18.70;99.90
2935;DHT22;2462;51.456;7.248;2022-07-15T01:42:59;18.70;99.90
2935;DHT22;2462;51.456;7.248;2022-07-15T01:45:25;18.70;99.90
2935;DHT22;2462;51.456;7.248;2022-07-15T01:47:51;18.70;99.90
2935;DHT22;2462;51.456;7.248;2022-07-15T01:50:17;18.70;99.90
2935;DHT22;2462;51.456;7.248;2022-07-15T01:52:44;18.70;99.90
2935;DHT22;2462;51.456;7.248;2022-07-15T01:55:09;18.60;99.90
2935;DHT22;2462;51.456;7.248;2022-07-15T01:57:35;18.60;99.90
2935;DHT22;2462;51.456;7.248;2022-07-15T02:00:01;18.60;99.90
2935;DHT22;2462;51.456;7.248;2022-07-15T02:02:26;18.60;99.90
2935;DHT22;2462;51.456;7.248;2022-07-15T02:04:52;18.60;99.90
2935;DHT22;2462;51.456;7.248;2022-07-15T02:07:18;18.60;99.90
2935;DHT22;2462;51.456;7.248;2022-07-15T02:09:43;18.60;99.90
2935;DHT22;2462;51.456;7.248;2022-07-15T02:12:09;18.60;99.90
2935;DHT22;2462;51.456;7.248;2022-07-15T02:14:35;18.60;99.90
2935;DHT22;2462;51.456;7.248;2022-07-15T02:17:02;18.50;99.90
2935;DHT22;2462;51.456;7.248;2022-07-15T02:19:28;18.50;99.90
2935;DHT22;2462;51.456;7.248;2022-07-15T02:21:54;18.50;99.90
2935;DHT22;2462;51.456;7.248;2022-07-15T02:24:20;18.50;99.90
2935;DHT22;2462;51.456;7.248;2022-07-15T02:26:46;18.50;99.90
2935;DHT22;2462;51.456;7.248;2022-07-15T02:29:12;18.50;99.90
2935;DHT22;2462;51.456;7.248;2022-07-15T02:31:38;18.50;99.90
2935;DHT22;2462;51.456;7.248;2022-07-15T02:34:04;18.50;99.90
2935;DHT22;2462;51.456;7.248;2022-07-15T02:36:29;18.40;99.90
2935;DHT22;2462;51.456;7.248;2022-07-15T02:38:56;18.40;99.90
2935;DHT22;2462;51.456;7.248;2022-07-15T02:41:22;18.40;99.90
2935;DHT22;2462;51.456;7.248;2022-07-15T02:43:48;18.40;99.90
2935;DHT22;2462;51.456;7.248;2022-07-15T02:46:14;18.30;99.90
2935;DHT22;2462;51.456;7.248;2022-07-15T02:48:40;18.30;99.90
2935;DHT22;2462;51.456;7.248;2022-07-15T02:51:06;18.30;99.90
2935;DHT22;2462;51.456;7.248;2022-07-15T02:53:32;18.30;99.90
2935;DHT22;2462;51.456;7.248;2022-07-15T02:55:58;18.30;99.90
2935;DHT22;2462;51.456;7.248;2022-07-15T02:58:24;18.20;99.90
2935;DHT22;2462;51.456;7.248;2022-07-15T03:00:50;18.20;99.90
2935;DHT22;2462;51.456;7.248;2022-07-15T03:03:16;18.20;99.90
2935;DHT22;2462;51.456;7.248;2022-07-15T03:05:41;18.20;99.90
2935;DHT22;2462;51.456;7.248;2022-07-15T03:08:07;18.10;99.90
2935;DHT22;2462;51.456;7.248;2022-07-15T03:10:32;18.10;99.90
2935;DHT22;2462;51.456;7.248;2022-07-15T03:12:58;18.00;99.90
2935;DHT22;2462;51.456;7.248;2022-07-15T03:15:24;18.00;99.90
2935;DHT22;2462;51.456;7.248;2022-07-15T03:17:49;18.00;99.90
2935;DHT22;2462;51.456;7.248;2022-07-15T03:20:15;17.90;99.90
2935;DHT22;2462;51.456;7.248;2022-07-15T03:22:41;18.00;99.90
2935;DHT22;2462;51.456;7.248;2022-07-15T03:25:06;17.90;99.90
2935;DHT22;2462;51.456;7.248;2022-07-15T03:27:32;17.90;99.90
2935;DHT22;2462;51.456;7.248;2022-07-15T03:29:59;17.90;99.90
2935;DHT22;2462;51.456;7.248;2022-07-15T03:32:25;17.90;99.90
2935;DHT22;2462;51.456;7.248;2022-07-15T03:34:51;17.90;99.90
2935;DHT22;2462;51.456;7.248;2022-07-15T03:37:16;17.80;99.90
2935;DHT22;2462;51.456;7.248;2022-07-15T03:39:42;17.80;99.90
2935;DHT22;2462;51.456;7.248;2022-07-15T03:42:08;17.70;99.90
2935;DHT22;2462;51.456;7.248;2022-07-15T03:44:34;17.80;99.90
2935;DHT22;2462;51.456;7.248;2022-07-15T03:46:59;17.70;99.90
2935;DHT22;2462;51.456;7.248;2022-07-15T03:49:25;17.70;99.90
2935;DHT22;2462;51.456;7.248;2022-07-15T03:51:50;17.70;99.90
2935;DHT22;2462;51.456;7.248;2022-07-15T03:54:16;17.70;99.90
2935;DHT22;2462;51.456;7.248;2022-07-15T03:56:42;17.60;99.90
2935;DHT22;2462;51.456;7.248;2022-07-15T03:59:07;17.60;99.90
2935;DHT22;2462;51.456;7.248;2022-07-15T04:01:33;17.60;99.90
2935;DHT22;2462;51.456;7.248;2022-07-15T04:03:59;17.60;99.90
2935;DHT22;2462;51.456;7.248;2022-07-15T04:06:25;17.50;99.90
2935;DHT22;2462;51.456;7.248;2022-07-15T04:08:51;17.50;99.90
2935;DHT22;2462;51.456;7.248;2022-07-15T04:11:17;17.50;99.90
2935;DHT22;2462;51.456;7.248;2022-07-15T04:13:43;17.50;99.90
2935;DHT22;2462;51.456;7.248;2022-07-15T04:16:09;17.50;99.90
2935;DHT22;2462;51.456;7.248;2022-07-15T04:18:37;17.50;99.90
2935;DHT22;2462;51.456;7.248;2022-07-15T04:21:03;17.40;99.90
2935;DHT22;2462;51.456;7.248;2022-07-15T04:23:28;17.40;99.90
2935;DHT22;2462;51.456;7.248;2022-07-15T04:25:54;17.40;99.90
2935;DHT22;2462;51.456;7.248;2022-07-15T04:28:21;17.40;99.90
2935;DHT22;2462;51.456;7.248;2022-07-15T04:30:47;17.40;99.90
2935;DHT22;2462;51.456;7.248;2022-07-15T04:33:13;17.40;99.90
2935;DHT22;2462;51.456;7.248;2022-07-15T04:35:39;17.40;99.90
2935;DHT22;2462;51.456;7.248;2022-07-15T04:38:05;17.40;99.90
2935;DHT22;2462;51.456;7.248;2022-07-15T04:40:31;17.40;99.90
2935;DHT22;2462;51.456;7.248;2022-07-15T04:42:58;17.40;99.90
2935;DHT22;2462;51.456;7.248;2022-07-15T04:45:26;17.40;99.90
2935;DHT22;2462;51.456;7.248;2022-07-15T04:47:52;17.40;99.90
2935;DHT22;2462;51.456;7.248;2022-07-15T04:50:18;17.40;99.90
2935;DHT22;2462;51.456;7.248;2022-07-15T04:53:02;17.40;99.90
2935;DHT22;2462;51.456;7.248;2022-07-15T04:55:29;17.40;99.90
2935;DHT22;2462;51.456;7.248;2022-07-15T04:57:55;17.40;99.90
2935;DHT22;2462;51.456;7.248;2022-07-15T05:00:20;17.40;99.90
2935;DHT22;2462;51.456;7.248;2022-07-15T05:02:46;17.40;99.90
2935;DHT22;2462;51.456;7.248;2022-07-15T05:05:12;17.40;99.90
2935;DHT22;2462;51.456;7.248;2022-07-15T05:07:37;17.40;99.90
2935;DHT22;2462;51.456;7.248;2022-07-15T05:10:06;17.40;99.90
2935;DHT22;2462;51.456;7.248;2022-07-15T05:12:32;17.40;99.90
2935;DHT22;2462;51.456;7.248;2022-07-15T05:14:58;17.40;99.90
2935;DHT22;2462;51.456;7.248;2022-07-15T05:17:24;17.50;99.90
2935;DHT22;2462;51.456;7.248;2022-07-15T05:19:51;17.50;99.90
2935;DHT22;2462;51.456;7.248;2022-07-15T05:22:17;17.50;99.90
2935;DHT22;2462;51.456;7.248;2022-07-15T05:24:43;17.50;99.90
2935;DHT22;2462;51.456;7.248;2022-07-15T05:27:09;17.50;99.90
2935;DHT22;2462;51.456;7.248;2022-07-15T05:29:35;17.50;99.90
2935;DHT22;2462;51.456;7.248;2022-07-15T05:32:01;17.50;99.90
2935;DHT22;2462;51.456;7.248;2022-07-15T05:34:26;17.50;99.90
2935;DHT22;2462;51.456;7.248;2022-07-15T05:36:52;17.50;99.90
2935;DHT22;2462;51.456;7.248;2022-07-15T05:39:17;17.50;99.90
2935;DHT22;2462;51.456;7.248;2022-07-15T05:41:43;17.50;99.90
2935;DHT22;2462;51.456;7.248;2022-07-15T05:44:09;17.50;99.90
2935;DHT22;2462;51.456;7.248;2022-07-15T05:46:34;17.60;99.90
2935;DHT22;2462;51.456;7.248;2022-07-15T05:49:00;17.50;99.90
2935;DHT22;2462;51.456;7.248;2022-07-15T05:51:26;17.60;99.90
2935;DHT22;2462;51.456;7.248;2022-07-15T05:53:52;17.60;99.90
2935;DHT22;2462;51.456;7.248;2022-07-15T05:56:17;17.60;99.90
2935;DHT22;2462;51.456;7.248;2022-07-15T05:58:43;17.60;99.90
2935;DHT22;2462;51.456;7.248;2022-07-15T06:01:08;17.60;99.90
2935;DHT22;2462;51.456;7.248;2022-07-15T06:03:35;17.60;99.90
2935;DHT22;2462;51.456;7.248;2022-07-15T06:06:02;17.70;99.90
2935;DHT22;2462;51.456;7.248;2022-07-15T06:08:28;17.70;99.90
2935;DHT22;2462;51.456;7.248;2022-07-15T06:10:54;17.60;99.90
2935;DHT22;2462;51.456;7.248;2022-07-15T06:13:19;17.70;99.90
2935;DHT22;2462;51.456;7.248;2022-07-15T06:15:46;17.70;99.90
2935;DHT22;2462;51.456;7.248;2022-07-15T06:18:12;17.70;99.90
2935;DHT22;2462;51.456;7.248;2022-07-15T06:20:37;17.70;99.90
2935;DHT22;2462;51.456;7.248;2022-07-15T06:23:03;17.70;99.90
2935;DHT22;2462;51.456;7.248;2022-07-15T06:25:28;17.70;99.90
2935;DHT22;2462;51.456;7.248;2022-07-15T06:27:54;17.70;99.90
2935;DHT22;2462;51.456;7.248;2022-07-15T06:30:19;17.70;99.90
2935;DHT22;2462;51.456;7.248;2022-07-15T06:32:45;17.80;99.90
2935;DHT22;2462;51.456;7.248;2022-07-15T06:35:11;17.80;99.90
2935;DHT22;2462;51.456;7.248;2022-07-15T06:37:37;17.80;99.90
2935;DHT22;2462;51.456;7.248;2022-07-15T06:40:02;17.80;99.90
2935;DHT22;2462;51.456;7.248;2022-07-15T06:42:28;17.80;99.90
2935;DHT22;2462;51.456;7.248;2022-07-15T06:44:54;17.80;99.90
2935;DHT22;2462;51.456;7.248;2022-07-15T06:47:19;17.80;99.90
2935;DHT22;2462;51.456;7.248;2022-07-15T06:49:46;17.90;99.90
2935;DHT22;2462;51.456;7.248;2022-07-15T06:52:12;17.90;99.90
2935;DHT22;2462;51.456;7.248;2022-07-15T06:54:37;17.90;99.90
2935;DHT22;2462;51.456;7.248;2022-07-15T06:57:03;17.90;99.90
2935;DHT22;2462;51.456;7.248;2022-07-15T06:59:28;18.00;99.90
2935;DHT22;2462;51.456;7.248;2022-07-15T07:01:54;18.00;99.90
2935;DHT22;2462;51.456;7.248;2022-07-15T07:04:21;18.10;99.90
2935;DHT22;2462;51.456;7.248;2022-07-15T07:06:46;18.10;99.90
2935;DHT22;2462;51.456;7.248;2022-07-15T07:09:12;18.20;99.90
2935;DHT22;2462;51.456;7.248;2022-07-15T07:11:38;18.20;99.90
2935;DHT22;2462;51.456;7.248;2022-07-15T07:14:05;18.20;99.90
2935;DHT22;2462;51.456;7.248;2022-07-15T07:16:31;18.30;99.90
2935;DHT22;2462;51.456;7.248;2022-07-15T07:18:57;18.30;99.90
2935;DHT22;2462;51.456;7.248;2022-07-15T07:21:23;18.30;99.90
2935;DHT22;2462;51.456;7.248;2022-07-15T07:23:49;18.30;99.90
2935;DHT22;2462;51.456;7.248;2022-07-15T07:26:15;18.30;99.90
2935;DHT22;2462;51.456;7.248;2022-07-15T07:28:41;18.30;99.90
2935;DHT22;2462;51.456;7.248;2022-07-15T07:31:08;18.30;99.90
2935;DHT22;2462;51.456;7.248;2022-07-15T07:33:35;18.40;99.90
2935;DHT22;2462;51.456;7.248;2022-07-15T07:36:01;18.40;99.90
2935;DHT22;2462;51.456;7.248;2022-07-15T07:38:29;18.40;99.90
2935;DHT22;2462;51.456;7.248;2022-07-15T07:40:54;18.40;99.90
2935;DHT22;2462;51.456;7.248;2022-07-15T07:43:20;18.40;99.90
2935;DHT22;2462;51.456;7.248;2022-07-15T07:45:46;18.40;99.90
2935;DHT22;2462;51.456;7.248;2022-07-15T07:48:12;18.50;99.90
2935;DHT22;2462;51.456;7.248;2022-07-15T07:50:38;18.50;99.90
2935;DHT22;2462;51.456;7.248;2022-07-15T07:53:04;18.50;99.90
2935;DHT22;2462;51.456;7.248;2022-07-15T07:55:30;18.50;99.90
2935;DHT22;2462;51.456;7.248;2022-07-15T07:57:57;18.50;99.90
2935;DHT22;2462;51.456;7.248;2022-07-15T08:00:25;18.50;99.90
2935;DHT22;2462;51.456;7.248;2022-07-15T08:02:52;18.50;99.90
2935;DHT22;2462;51.456;7.248;2022-07-15T08:05:18;18.50;99.90
2935;DHT22;2462;51.456;7.248;2022-07-15T08:07:44;18.60;99.90
2935;DHT22;2462;51.456;7.248;2022-07-15T08:10:11;18.60;99.90
2935;DHT22;2462;51.456;7.248;2022-07-15T08:12:37;18.60;99.90
2935;DHT22;2462;51.456;7.248;2022-07-15T08:15:07;18.60;99.90
2935;DHT22;2462;51.456;7.248;2022-07-15T08:17:34;18.60;99.90
2935;DHT22;2462;51.456;7.248;2022-07-15T08:20:00;18.70;99.90
2935;DHT22;2462;51.456;7.248;2022-07-15T08:22:26;18.70;99.90
2935;DHT22;2462;51.456;7.248;2022-07-15T08:24:52;18.80;99.90
2935;DHT22;2462;51.456;7.248;2022-07-15T08:27:18;18.80;99.90
2935;DHT22;2462;51.456;7.248;2022-07-15T08:29:44;18.80;99.90
2935;DHT22;2462;51.456;7.248;2022-07-15T08:32:10;18.90;99.90
2935;DHT22;2462;51.456;7.248;2022-07-15T08:34:36;19.00;99.90
2935;DHT22;2462;51.456;7.248;2022-07-15T08:37:02;19.00;99.90
2935;DHT22;2462;51.456;7.248;2022-07-15T08:39:27;19.00;99.90
2935;DHT22;2462;51.456;7.248;2022-07-15T08:41:53;19.00;99.90
2935;DHT22;2462;51.456;7.248;2022-07-15T08:44:19;19.10;99.90
2935;DHT22;2462;51.456;7.248;2022-07-15T08:46:46;19.10;99.90
2935;DHT22;2462;51.456;7.248;2022-07-15T08:49:16;19.10;99.90
2935;DHT22;2462;51.456;7.248;2022-07-15T08:51:45;19.10;99.90
2935;DHT22;2462;51.456;7.248;2022-07-15T08:54:12;19.10;99.90
2935;DHT22;2462;51.456;7.248;2022-07-15T08:56:37;19.10;99.90
2935;DHT22;2462;51.456;7.248;2022-07-15T08:59:04;19.10;99.90
2935;DHT22;2462;51.456;7.248;2022-07-15T09:01:31;19.10;99.90
2935;DHT22;2462;51.456;7.248;2022-07-15T09:03:58;19.20;99.90
2935;DHT22;2462;51.456;7.248;2022-07-15T09:06:44;19.20;99.90
2935;DHT22;2462;51.456;7.248;2022-07-15T09:12:06;19.10;99.90
2935;DHT22;2462;51.456;7.248;2022-07-15T09:14:34;19.10;99.90
2935;DHT22;2462;51.456;7.248;2022-07-15T09:20:02;19.00;99.90
2935;DHT22;2462;51.456;7.248;2022-07-15T09:22:32;19.00;99.90
2935;DHT22;2462;51.456;7.248;2022-07-15T09:25:04;19.10;99.90
2935;DHT22;2462;51.456;7.248;2022-07-15T09:27:36;19.20;99.90
2935;DHT22;2462;51.456;7.248;2022-07-15T09:30:16;19.20;99.90
2935;DHT22;2462;51.456;7.248;2022-07-15T09:33:02;19.20;99.90
2935;DHT22;2462;51.456;7.248;2022-07-15T09:35:47;19.20;99.90
2935;DHT22;2462;51.456;7.248;2022-07-15T09:38:32;19.20;99.90
2935;DHT22;2462;51.456;7.248;2022-07-15T09:40:58;19.30;99.90
2935;DHT22;2462;51.456;7.248;2022-07-15T09:43:24;19.40;99.90
2935;DHT22;2462;51.456;7.248;2022-07-15T09:46:00;19.40;99.90
2935;DHT22;2462;51.456;7.248;2022-07-15T09:48:27;19.50;99.70
2935;DHT22;2462;51.456;7.248;2022-07-15T09:50:58;19.50;99.40
2935;DHT22;2462;51.456;7.248;2022-07-15T09:53:25;19.60;99.30
2935;DHT22;2462;51.456;7.248;2022-07-15T09:55:51;19.60;99.30
2935;DHT22;2462;51.456;7.248;2022-07-15T09:58:18;19.60;98.80
2935;DHT22;2462;51.456;7.248;2022-07-15T10:00:44;19.50;98.70
2935;DHT22;2462;51.456;7.248;2022-07-15T10:03:10;19.50;98.90
2935;DHT22;2462;51.456;7.248;2022-07-15T10:05:39;19.50;99.00
2935;DHT22;2462;51.456;7.248;2022-07-15T10:08:06;19.50;99.00
2935;DHT22;2462;51.456;7.248;2022-07-15T10:10:34;19.50;99.10
2935;DHT22;2462;51.456;7.248;2022-07-15T10:18:45;19.60;99.00
2935;DHT22;2462;51.456;7.248;2022-07-15T10:29:29;19.90;98.60
2935;DHT22;2462;51.456;7.248;2022-07-15T10:31:57;19.80;98.50
2935;DHT22;2462;51.456;7.248;2022-07-15T10:34:32;19.90;98.80
2935;DHT22;2462;51.456;7.248;2022-07-15T10:36:59;19.90;98.70
2935;DHT22;2462;51.456;7.248;2022-07-15T10:42:13;20.00;98.70
2935;DHT22;2462;51.456;7.248;2022-07-15T10:45:08;19.90;98.60
2935;DHT22;2462;51.456;7.248;2022-07-15T10:47:34;20.00;98.60
2935;DHT22;2462;51.456;7.248;2022-07-15T10:50:00;20.00;98.10
2935;DHT22;2462;51.456;7.248;2022-07-15T10:52:46;20.00;97.90
2935;DHT22;2462;51.456;7.248;2022-07-15T10:55:11;20.00;97.80
2935;DHT22;2462;51.456;7.248;2022-07-15T11:00:25;19.90;98.00
2935;DHT22;2462;51.456;7.248;2022-07-15T11:05:34;20.00;98.20
2935;DHT22;2462;51.456;7.248;2022-07-15T11:13:53;20.10;98.10
2935;DHT22;2462;51.456;7.248;2022-07-15T11:16:20;20.10;98.30
2935;DHT22;2462;51.456;7.248;2022-07-15T11:18:48;20.10;98.30
2935;DHT22;2462;51.456;7.248;2022-07-15T11:21:15;20.10;98.30
2935;DHT22;2462;51.456;7.248;2022-07-15T11:23:45;20.10;98.20
2935;DHT22;2462;51.456;7.248;2022-07-15T11:26:11;20.10;98.20
2935;DHT22;2462;51.456;7.248;2022-07-15T11:28:38;20.10;98.20
2935;DHT22;2462;51.456;7.248;2022-07-15T11:31:04;20.10;98.40
2935;DHT22;2462;51.456;7.248;2022-07-15T11:33:29;20.10;98.50
2935;DHT22;2462;51.456;7.248;2022-07-15T11:36:02;20.10;98.40
2935;DHT22;2462;51.456;7.248;2022-07-15T11:38:30;20.10;98.80
2935;DHT22;2462;51.456;7.248;2022-07-15T11:41:00;20.10;98.50
2935;DHT22;2462;51.456;7.248;2022-07-15T11:43:44;20.10;98.50
2935;DHT22;2462;51.456;7.248;2022-07-15T11:46:30;20.10;98.30
2935;DHT22;2462;51.456;7.248;2022-07-15T11:48:57;20.10;98.10
2935;DHT22;2462;51.456;7.248;2022-07-15T11:51:25;20.10;98.10
2935;DHT22;2462;51.456;7.248;2022-07-15T11:53:51;20.10;98.30
2935;DHT22;2462;51.456;7.248;2022-07-15T11:56:17;20.10;98.40
2935;DHT22;2462;51.456;7.248;2022-07-15T11:58:45;20.00;98.30
2935;DHT22;2462;51.456;7.248;2022-07-15T12:01:14;20.00;98.30
2935;DHT22;2462;51.456;7.248;2022-07-15T12:03:42;20.00;98.20
2935;DHT22;2462;51.456;7.248;2022-07-15T12:06:11;20.00;98.20
2935;DHT22;2462;51.456;7.248;2022-07-15T12:08:47;20.10;98.20
2935;DHT22;2462;51.456;7.248;2022-07-15T12:11:20;20.10;98.00
2935;DHT22;2462;51.456;7.248;2022-07-15T12:13:59;20.20;97.80
2935;DHT22;2462;51.456;7.248;2022-07-15T12:16:33;20.30;97.70
2935;DHT22;2462;51.456;7.248;2022-07-15T12:19:05;20.30;97.70
2935;DHT22;2462;51.456;7.248;2022-07-15T12:21:33;20.30;97.80
2935;DHT22;2462;51.456;7.248;2022-07-15T12:24:03;20.30;98.00
2935;DHT22;2462;51.456;7.248;2022-07-15T12:26:30;20.30;98.00
2935;DHT22;2462;51.456;7.248;2022-07-15T12:29:02;20.30;98.00
2935;DHT22;2462;51.456;7.248;2022-07-15T12:31:31;20.30;97.90
2935;DHT22;2462;51.456;7.248;2022-07-15T12:33:57;20.20;97.80
2935;DHT22;2462;51.456;7.248;2022-07-15T12:36:25;20.20;97.70
2935;DHT22;2462;51.456;7.248;2022-07-15T12:41:32;20.20;97.40
2935;DHT22;2462;51.456;7.248;2022-07-15T12:44:00;20.30;97.30
2935;DHT22;2462;51.456;7.248;2022-07-15T12:46:53;20.30;97.10
2935;DHT22;2462;51.456;7.248;2022-07-15T12:52:16;20.50;96.60
2935;DHT22;2462;51.456;7.248;2022-07-15T12:54:42;20.50;96.40
2935;DHT22;2462;51.456;7.248;2022-07-15T12:57:34;20.50;96.40
2935;DHT22;2462;51.456;7.248;2022-07-15T13:00:07;20.50;96.00
2935;DHT22;2462;51.456;7.248;2022-07-15T13:03:10;20.60;96.00
2935;DHT22;2462;51.456;7.248;2022-07-15T13:05:38;20.70;95.70
2935;DHT22;2462;51.456;7.248;2022-07-15T13:08:09;20.70;95.50
2935;DHT22;2462;51.456;7.248;2022-07-15T13:10:35;20.80;95.50
2935;DHT22;2462;51.456;7.248;2022-07-15T13:13:02;20.80;95.40
2935;DHT22;2462;51.456;7.248;2022-07-15T13:15:28;20.80;95.50
2935;DHT22;2462;51.456;7.248;2022-07-15T13:17:54;20.80;95.50
2935;DHT22;2462;51.456;7.248;2022-07-15T13:20:20;20.80;95.70
2935;DHT22;2462;51.456;7.248;2022-07-15T13:22:45;20.80;95.80
2935;DHT22;2462;51.456;7.248;2022-07-15T13:25:11;20.90;95.30
2935;DHT22;2462;51.456;7.248;2022-07-15T13:27:37;20.90;94.90
2935;DHT22;2462;51.456;7.248;2022-07-15T13:30:04;21.00;95.10
2935;DHT22;2462;51.456;7.248;2022-07-15T13:32:29;21.00;94.80
2935;DHT22;2462;51.456;7.248;2022-07-15T13:34:55;21.10;94.80
2935;DHT22;2462;51.456;7.248;2022-07-15T13:37:21;21.00;94.70
2935;DHT22;2462;51.456;7.248;2022-07-15T13:39:46;21.00;94.50
2935;DHT22;2462;51.456;7.248;2022-07-15T13:42:12;21.00;94.70
2935;DHT22;2462;51.456;7.248;2022-07-15T13:44:37;21.00;94.70
2935;DHT22;2462;51.456;7.248;2022-07-15T13:47:03;20.90;94.40
2935;DHT22;2462;51.456;7.248;2022-07-15T13:49:28;20.90;94.60
2935;DHT22;2462;51.456;7.248;2022-07-15T13:52:12;20.90;94.70
2935;DHT22;2462;51.456;7.248;2022-07-15T13:54:38;20.90;94.80
2935;DHT22;2462;51.456;7.248;2022-07-15T13:57:03;20.90;95.00
2935;DHT22;2462;51.456;7.248;2022-07-15T13:59:29;20.90;94.50
2935;DHT22;2462;51.456;7.248;2022-07-15T14:01:54;20.90;94.40
2935;DHT22;2462;51.456;7.248;2022-07-15T14:04:20;20.90;94.60
2935;DHT22;2462;51.456;7.248;2022-07-15T14:06:46;20.90;94.70
2935;DHT22;2462;51.456;7.248;2022-07-15T14:09:11;20.90;94.80
2935;DHT22;2462;51.456;7.248;2022-07-15T14:11:37;20.90;95.00
2935;DHT22;2462;51.456;7.248;2022-07-15T14:14:03;20.90;95.00
2935;DHT22;2462;51.456;7.248;2022-07-15T14:16:29;20.90;94.90
2935;DHT22;2462;51.456;7.248;2022-07-15T14:18:54;20.90;94.80
2935;DHT22;2462;51.456;7.248;2022-07-15T14:21:20;20.90;94.70
2935;DHT22;2462;51.456;7.248;2022-07-15T14:23:48;21.00;94.60
2935;DHT22;2462;51.456;7.248;2022-07-15T14:26:14;20.90;94.20
2935;DHT22;2462;51.456;7.248;2022-07-15T14:28:40;20.90;93.90
2935;DHT22;2462;51.456;7.248;2022-07-15T14:31:07;20.90;94.00
2935;DHT22;2462;51.456;7.248;2022-07-15T14:33:33;21.00;93.90
2935;DHT22;2462;51.456;7.248;2022-07-15T14:35:59;21.00;93.90
2935;DHT22;2462;51.456;7.248;2022-07-15T14:38:25;21.00;93.90
2935;DHT22;2462;51.456;7.248;2022-07-15T14:40:51;21.00;93.80
2935;DHT22;2462;51.456;7.248;2022-07-15T14:43:16;20.90;93.80
2935;DHT22;2462;51.456;7.248;2022-07-15T14:45:42;21.00;93.90
2935;DHT22;2462;51.456;7.248;2022-07-15T14:48:07;21.00;94.00
2935;DHT22;2462;51.456;7.248;2022-07-15T14:50:33;21.00;93.80
2935;DHT22;2462;51.456;7.248;2022-07-15T14:53:02;21.00;93.70
2935;DHT22;2462;51.456;7.248;2022-07-15T14:55:27;21.00;93.70
2935;DHT22;2462;51.456;7.248;2022-07-15T14:57:53;21.10;93.60
2935;DHT22;2462;51.456;7.248;2022-07-15T15:00:19;21.00;93.40
2935;DHT22;2462;51.456;7.248;2022-07-15T15:02:45;21.00;93.50
2935;DHT22;2462;51.456;7.248;2022-07-15T15:05:11;21.00;93.70
2935;DHT22;2462;51.456;7.248;2022-07-15T15:07:37;21.00;93.70
2935;DHT22;2462;51.456;7.248;2022-07-15T15:10:03;21.00;93.80
2935;DHT22;2462;51.456;7.248;2022-07-15T15:12:28;21.00;93.90
2935;DHT22;2462;51.456;7.248;2022-07-15T15:14:54;21.00;94.10
2935;DHT22;2462;51.456;7.248;2022-07-15T15:17:20;21.10;94.20
2935;DHT22;2462;51.456;7.248;2022-07-15T15:19:45;21.10;94.40
2935;DHT22;2462;51.456;7.248;2022-07-15T15:22:11;21.10;94.30
2935;DHT22;2462;51.456;7.248;2022-07-15T15:24:36;21.10;94.40
2935;DHT22;2462;51.456;7.248;2022-07-15T15:27:03;21.10;94.50
2935;DHT22;2462;51.456;7.248;2022-07-15T15:29:30;21.10;94.50
2935;DHT22;2462;51.456;7.248;2022-07-15T15:31:56;21.20;94.40
2935;DHT22;2462;51.456;7.248;2022-07-15T15:34:21;21.20;94.00
2935;DHT22;2462;51.456;7.248;2022-07-15T15:36:47;21.30;93.60
2935;DHT22;2462;51.456;7.248;2022-07-15T15:39:13;21.30;93.20
2935;DHT22;2462;51.456;7.248;2022-07-15T15:41:39;21.30;93.20
2935;DHT22;2462;51.456;7.248;2022-07-15T15:44:05;21.40;93.20
2935;DHT22;2462;51.456;7.248;2022-07-15T15:46:31;21.40;93.20
2935;DHT22;2462;51.456;7.248;2022-07-15T15:48:56;21.40;93.20
2935;DHT22;2462;51.456;7.248;2022-07-15T15:51:22;21.50;93.20
2935;DHT22;2462;51.456;7.248;2022-07-15T15:53:48;21.50;93.00
2935;DHT22;2462;51.456;7.248;2022-07-15T15:56:13;21.50;93.00
2935;DHT22;2462;51.456;7.248;2022-07-15T15:58:39;21.50;93.00
2935;DHT22;2462;51.456;7.248;2022-07-15T16:01:05;21.50;92.60
2935;DHT22;2462;51.456;7.248;2022-07-15T16:03:30;21.50;92.70
2935;DHT22;2462;51.456;7.248;2022-07-15T16:05:56;21.50;92.40
2935;DHT22;2462;51.456;7.248;2022-07-15T16:08:22;21.50;92.40
2935;DHT22;2462;51.456;7.248;2022-07-15T16:10:48;21.50;92.60
2935;DHT22;2462;51.456;7.248;2022-07-15T16:13:13;21.50;92.60
2935;DHT22;2462;51.456;7.248;2022-07-15T16:15:39;21.50;92.70
2935;DHT22;2462;51.456;7.248;2022-07-15T16:18:04;21.60;92.70
2935;DHT22;2462;51.456;7.248;2022-07-15T16:20:30;21.60;92.50
2935;DHT22;2462;51.456;7.248;2022-07-15T16:22:55;21.50;92.40
2935;DHT22;2462;51.456;7.248;2022-07-15T16:25:30;21.50;92.50
2935;DHT22;2462;51.456;7.248;2022-07-15T16:27:57;21.50;92.60
2935;DHT22;2462;51.456;7.248;2022-07-15T16:30:23;21.50;92.60
2935;DHT22;2462;51.456;7.248;2022-07-15T16:32:50;21.50;92.30
2935;DHT22;2462;51.456;7.248;2022-07-15T16:35:21;21.40;92.30
2935;DHT22;2462;51.456;7.248;2022-07-15T16:37:50;21.40;92.60
2935;DHT22;2462;51.456;7.248;2022-07-15T16:40:17;21.40;92.70